sensor_id;sensor_type;location;lat;lon;timestamp;temperature;humidity
9915;DHT22;4996;48.746;9.174;2023-04-29T00:00:04;14.50;99.90
9915;DHT22;4996;48.746;9.174;2023-04-29T00:02:33;14.50;99.90
9915;DHT22;4996;48.746;9.174;2023-04-29T00:04:58;14.40;99.90
9915;DHT22;4996;48.746;9.174;2023-04-29T00:07:24;14.50;99.90
9915;DHT22;4996;48.746;9.174;2023-04-29T00:09:50;14.50;99.90
9915;DHT22;4996;48.746;9.174;2023-04-29T00:12:15;14.50;99.90
9915;DHT22;4996;48.746;9.174;2023-04-29T00:14:41;14.50;99.90
9915;DHT22;4996;48.746;9.174;2023-04-29T00:17:08;14.40;99.90
9915;DHT22;4996;48.746;9.174;2023-04-29T00:19:33;14.40;99.90
9915;DHT22;4996;48.746;9.174;2023-04-29T00:21:59;14.40;99.90
9915;DHT22;4996;48.746;9.174;2023-04-29T00:24:26;14.40;99.90
9915;DHT22;4996;48.746;9.174;2023-04-29T00:26:51;14.40;99.90
9915;DHT22;4996;48.746;9.174;2023-04-29T00:29:17;14.40;99.90
9915;DHT22;4996;48.746;9.174;2023-04-29T00:31:43;14.40;99.90
9915;DHT22;4996;48.746;9.174;2023-04-29T00:34:09;14.40;99.90
9915;DHT22;4996;48.746;9.174;2023-04-29T00:36:35;14.40;99.90
9915;DHT22;4996;48.746;9.174;2023-04-29T00:39:00;14.30;99.90
9915;DHT22;4996;48.746;9.174;2023-04-29T00:41:28;14.30;99.90
9915;DHT22;4996;48.746;9.174;2023-04-29T00:43:54;14.30;99.90
9915;DHT22;4996;48.746;9.174;2023-04-29T00:46:20;14.30;99.90
9915;DHT22;4996;48.746;9.174;2023-04-29T00:48:45;14.30;99.90
9915;DHT22;4996;48.746;9.174;2023-04-29T00:51:11;14.30;99.90
9915;DHT22;4996;48.746;9.174;2023-04-29T00:53:38;14.30;99.90
9915;DHT22;4996;48.746;9.174;2023-04-29T00:56:04;14.20;99.90
9915;DHT22;4996;48.746;9.174;2023-04-29T00:58:32;14.30;99.90
9915;DHT22;4996;48.746;9.174;2023-04-29T01:01:02;14.20;99.90
9915;DHT22;4996;48.746;9.174;2023-04-29T01:03:29;14.20;99.90
9915;DHT22;4996;48.746;9.174;2023-04-29T01:17:36;14.00;99.90
9915;DHT22;4996;48.746;9.174;2023-04-29T01:20:03;14.00;99.90
9915;DHT22;4996;48.746;9.174;2023-04-29T01:22:30;14.00;99.90
9915;DHT22;4996;48.746;9.174;2023-04-29T01:24:56;14.00;99.90
9915;DHT22;4996;48.746;9.174;2023-04-29T01:27:33;14.00;99.90
9915;DHT22;4996;48.746;9.174;2023-04-29T01:32:45;14.00;99.90
9915;DHT22;4996;48.746;9.174;2023-04-29T01:35:26;14.00;99.90
9915;DHT22;4996;48.746;9.174;2023-04-29T01:38:13;14.00;99.90
9915;DHT22;4996;48.746;9.174;2023-04-29T01:40:58;13.90;99.90
9915;DHT22;4996;48.746;9.174;2023-04-29T01:43:29;14.00;99.90
9915;DHT22;4996;48.746;9.174;2023-04-29T01:45:57;14.00;99.90
9915;DHT22;4996;48.746;9.174;2023-04-29T01:48:24;13.90;99.90
9915;DHT22;4996;48.746;9.174;2023-04-29T01:50:49;14.20;99.90
9915;DHT22;4996;48.746;9.174;2023-04-29T01:53:15;13.90;99.90
9915;DHT22;4996;48.746;9.174;2023-04-29T01:55:41;13.90;99.90
9915;DHT22;4996;48.746;9.174;2023-04-29T01:58:09;13.80;99.90
9915;DHT22;4996;48.746;9.174;2023-04-29T02:00:35;13.80;99.90
9915;DHT22;4996;48.746;9.174;2023-04-29T02:03:00;13.70;99.90
9915;DHT22;4996;48.746;9.174;2023-04-29T02:05:26;13.80;99.90
9915;DHT22;4996;48.746;9.174;2023-04-29T02:07:56;13.70;99.90
9915;DHT22;4996;48.746;9.174;2023-04-29T02:10:22;13.80;99.90
9915;DHT22;4996;48.746;9.174;2023-04-29T02:12:47;13.80;99.90
9915;DHT22;4996;48.746;9.174;2023-04-29T02:15:13;13.70;99.90
9915;DHT22;4996;48.746;9.174;2023-04-29T02:17:39;13.70;99.90
9915;DHT22;4996;48.746;9.174;2023-04-29T02:20:05;13.70;99.90
9915;DHT22;4996;48.746;9.174;2023-04-29T02:22:31;13.80;99.90
9915;DHT22;4996;48.746;9.174;2023-04-29T02:24:56;13.90;99.90
9915;DHT22;4996;48.746;9.174;2023-04-29T02:27:22;13.80;99.90
9915;DHT22;4996;48.746;9.174;2023-04-29T02:29:48;13.90;99.90
9915;DHT22;4996;48.746;9.174;2023-04-29T02:32:14;13.90;99.90
9915;DHT22;4996;48.746;9.174;2023-04-29T02:34:40;13.80;99.90
9915;DHT22;4996;48.746;9.174;2023-04-29T02:37:05;13.90;99.90
9915;DHT22;4996;48.746;9.174;2023-04-29T02:39:31;13.90;99.90
9915;DHT22;4996;48.746;9.174;2023-04-29T02:41:56;13.90;99.90
9915;DHT22;4996;48.746;9.174;2023-04-29T02:44:22;13.90;99.90
9915;DHT22;4996;48.746;9.174;2023-04-29T02:46:48;13.80;99.90
9915;DHT22;4996;48.746;9.174;2023-04-29T02:49:14;13.80;99.90
9915;DHT22;4996;48.746;9.174;2023-04-29T02:51:39;13.80;99.90
9915;DHT22;4996;48.746;9.174;2023-04-29T02:54:06;13.80;99.90
9915;DHT22;4996;48.746;9.174;2023-04-29T02:56:31;13.80;99.90
9915;DHT22;4996;48.746;9.174;2023-04-29T02:58:57;13.80;99.90
9915;DHT22;4996;48.746;9.174;2023-04-29T03:01:22;13.70;99.90
9915;DHT22;4996;48.746;9.174;2023-04-29T03:03:48;13.70;99.90
9915;DHT22;4996;48.746;9.174;2023-04-29T03:06:14;13.60;99.90
9915;DHT22;4996;48.746;9.174;2023-04-29T03:08:40;13.60;99.90
9915;DHT22;4996;48.746;9.174;2023-04-29T03:11:05;13.60;99.90
9915;DHT22;4996;48.746;9.174;2023-04-29T03:13:31;13.50;99.90
9915;DHT22;4996;48.746;9.174;2023-04-29T03:15:57;13.60;99.90
9915;DHT22;4996;48.746;9.174;2023-04-29T03:18:24;13.50;99.90
9915;DHT22;4996;48.746;9.174;2023-04-29T03:20:50;13.50;99.90
9915;DHT22;4996;48.746;9.174;2023-04-29T03:23:16;13.50;99.90
9915;DHT22;4996;48.746;9.174;2023-04-29T03:25:41;13.50;99.90
9915;DHT22;4996;48.746;9.174;2023-04-29T03:28:07;13.50;99.90
9915;DHT22;4996;48.746;9.174;2023-04-29T03:30:32;13.50;99.90
9915;DHT22;4996;48.746;9.174;2023-04-29T03:32:58;13.50;99.90
9915;DHT22;4996;48.746;9.174;2023-04-29T03:35:24;13.50;99.90
9915;DHT22;4996;48.746;9.174;2023-04-29T03:37:49;13.50;99.90
9915;DHT22;4996;48.746;9.174;2023-04-29T03:40:15;13.40;99.90
9915;DHT22;4996;48.746;9.174;2023-04-29T03:42:41;13.40;99.90
9915;DHT22;4996;48.746;9.174;2023-04-29T03:45:07;13.40;99.90
9915;DHT22;4996;48.746;9.174;2023-04-29T03:47:32;13.40;99.90
9915;DHT22;4996;48.746;9.174;2023-04-29T03:49:58;13.30;99.90
9915;DHT22;4996;48.746;9.174;2023-04-29T03:52:23;13.30;99.90
9915;DHT22;4996;48.746;9.174;2023-04-29T03:54:50;13.30;99.90
9915;DHT22;4996;48.746;9.174;2023-04-29T03:57:15;13.30;99.90
9915;DHT22;4996;48.746;9.174;2023-04-29T03:59:41;13.20;99.90
9915;DHT22;4996;48.746;9.174;2023-04-29T04:02:07;13.20;99.90
9915;DHT22;4996;48.746;9.174;2023-04-29T04:04:32;13.20;99.90
9915;DHT22;4996;48.746;9.174;2023-04-29T04:06:58;13.10;99.90
9915;DHT22;4996;48.746;9.174;2023-04-29T04:09:25;13.10;99.90
9915;DHT22;4996;48.746;9.174;2023-04-29T04:11:50;13.10;99.90
9915;DHT22;4996;48.746;9.174;2023-04-29T04:14:16;13.10;99.90
9915;DHT22;4996;48.746;9.174;2023-04-29T04:16:42;13.10;99.90
9915;DHT22;4996;48.746;9.174;2023-04-29T04:19:07;13.10;99.90
9915;DHT22;4996;48.746;9.174;2023-04-29T04:21:34;13.00;99.90
9915;DHT22;4996;48.746;9.174;2023-04-29T04:23:59;13.00;99.90
9915;DHT22;4996;48.746;9.174;2023-04-29T04:26:25;13.00;99.90
9915;DHT22;4996;48.746;9.174;2023-04-29T04:28:50;13.00;99.90
9915;DHT22;4996;48.746;9.174;2023-04-29T04:31:16;12.90;99.90
9915;DHT22;4996;48.746;9.174;2023-04-29T04:33:42;12.90;99.90
9915;DHT22;4996;48.746;9.174;2023-04-29T04:36:07;12.80;99.90
9915;DHT22;4996;48.746;9.174;2023-04-29T04:38:33;12.80;99.90
9915;DHT22;4996;48.746;9.174;2023-04-29T04:40:58;12.80;99.90
9915;DHT22;4996;48.746;9.174;2023-04-29T04:43:25;12.80;99.90
9915;DHT22;4996;48.746;9.174;2023-04-29T04:45:51;12.80;99.90
9915;DHT22;4996;48.746;9.174;2023-04-29T04:48:17;12.80;99.90
9915;DHT22;4996;48.746;9.174;2023-04-29T04:50:42;12.90;99.90
9915;DHT22;4996;48.746;9.174;2023-04-29T04:53:08;12.90;99.90
9915;DHT22;4996;48.746;9.174;2023-04-29T04:55:34;12.90;99.90
9915;DHT22;4996;48.746;9.174;2023-04-29T04:57:59;13.00;99.90
9915;DHT22;4996;48.746;9.174;2023-04-29T05:00:25;13.00;99.90
9915;DHT22;4996;48.746;9.174;2023-04-29T05:02:50;13.10;99.90
9915;DHT22;4996;48.746;9.174;2023-04-29T05:05:16;13.10;99.90
9915;DHT22;4996;48.746;9.174;2023-04-29T05:07:42;13.20;99.90
9915;DHT22;4996;48.746;9.174;2023-04-29T05:10:08;13.30;99.90
9915;DHT22;4996;48.746;9.174;2023-04-29T05:12:34;13.30;99.90
9915;DHT22;4996;48.746;9.174;2023-04-29T05:15:00;13.40;99.90
9915;DHT22;4996;48.746;9.174;2023-04-29T05:17:26;13.40;99.90
9915;DHT22;4996;48.746;9.174;2023-04-29T05:19:52;13.40;99.90
9915;DHT22;4996;48.746;9.174;2023-04-29T05:22:17;13.50;99.90
9915;DHT22;4996;48.746;9.174;2023-04-29T05:24:43;13.60;99.90
9915;DHT22;4996;48.746;9.174;2023-04-29T05:27:09;13.60;99.90
9915;DHT22;4996;48.746;9.174;2023-04-29T05:29:34;13.70;99.90
9915;DHT22;4996;48.746;9.174;2023-04-29T05:32:00;13.80;99.90
9915;DHT22;4996;48.746;9.174;2023-04-29T05:34:25;13.80;99.90
9915;DHT22;4996;48.746;9.174;2023-04-29T05:36:51;14.00;99.90
9915;DHT22;4996;48.746;9.174;2023-04-29T05:39:17;14.00;99.90
9915;DHT22;4996;48.746;9.174;2023-04-29T05:41:43;14.10;99.90
9915;DHT22;4996;48.746;9.174;2023-04-29T05:44:08;14.10;99.90
9915;DHT22;4996;48.746;9.174;2023-04-29T05:46:34;14.00;99.90
9915;DHT22;4996;48.746;9.174;2023-04-29T05:49:00;13.80;99.90
9915;DHT22;4996;48.746;9.174;2023-04-29T05:51:26;14.20;99.90
9915;DHT22;4996;48.746;9.174;2023-04-29T05:53:55;14.20;99.90
9915;DHT22;4996;48.746;9.174;2023-04-29T05:56:23;14.30;99.90
9915;DHT22;4996;48.746;9.174;2023-04-29T05:58:49;14.30;99.90
9915;DHT22;4996;48.746;9.174;2023-04-29T06:01:14;14.30;99.90
9915;DHT22;4996;48.746;9.174;2023-04-29T06:03:42;14.50;99.90
9915;DHT22;4996;48.746;9.174;2023-04-29T06:06:07;14.40;99.90
9915;DHT22;4996;48.746;9.174;2023-04-29T06:08:33;14.40;99.90
9915;DHT22;4996;48.746;9.174;2023-04-29T06:10:58;14.50;99.90
9915;DHT22;4996;48.746;9.174;2023-04-29T06:13:24;14.50;99.90
9915;DHT22;4996;48.746;9.174;2023-04-29T06:15:50;14.60;99.90
9915;DHT22;4996;48.746;9.174;2023-04-29T06:18:16;14.70;99.90
9915;DHT22;4996;48.746;9.174;2023-04-29T06:20:41;14.80;99.90
9915;DHT22;4996;48.746;9.174;2023-04-29T06:23:07;14.80;99.90
9915;DHT22;4996;48.746;9.174;2023-04-29T06:25:33;14.80;99.90
9915;DHT22;4996;48.746;9.174;2023-04-29T06:27:58;14.80;99.90
9915;DHT22;4996;48.746;9.174;2023-04-29T06:30:24;14.80;99.90
9915;DHT22;4996;48.746;9.174;2023-04-29T06:32:50;15.00;99.90
9915;DHT22;4996;48.746;9.174;2023-04-29T06:35:16;14.80;99.90
9915;DHT22;4996;48.746;9.174;2023-04-29T06:37:41;14.70;99.90
9915;DHT22;4996;48.746;9.174;2023-04-29T06:40:07;14.60;99.90
9915;DHT22;4996;48.746;9.174;2023-04-29T06:42:33;14.70;99.90
9915;DHT22;4996;48.746;9.174;2023-04-29T06:44:59;14.70;99.90
9915;DHT22;4996;48.746;9.174;2023-04-29T06:47:25;14.70;99.90
9915;DHT22;4996;48.746;9.174;2023-04-29T06:49:50;14.70;99.90
9915;DHT22;4996;48.746;9.174;2023-04-29T06:52:17;14.70;99.90
9915;DHT22;4996;48.746;9.174;2023-04-29T06:54:43;14.70;99.90
9915;DHT22;4996;48.746;9.174;2023-04-29T06:57:08;14.60;99.90
9915;DHT22;4996;48.746;9.174;2023-04-29T06:59:34;14.60;99.90
9915;DHT22;4996;48.746;9.174;2023-04-29T07:02:00;14.80;99.90
9915;DHT22;4996;48.746;9.174;2023-04-29T07:04:25;14.80;99.90
9915;DHT22;4996;48.746;9.174;2023-04-29T07:06:51;14.90;99.90
9915;DHT22;4996;48.746;9.174;2023-04-29T07:09:18;14.90;99.90
9915;DHT22;4996;48.746;9.174;2023-04-29T07:11:43;15.10;99.90
9915;DHT22;4996;48.746;9.174;2023-04-29T07:14:09;14.90;99.90
9915;DHT22;4996;48.746;9.174;2023-04-29T07:16:35;14.90;99.90
9915;DHT22;4996;48.746;9.174;2023-04-29T07:19:01;15.00;99.90
9915;DHT22;4996;48.746;9.174;2023-04-29T07:21:26;15.10;99.90
9915;DHT22;4996;48.746;9.174;2023-04-29T07:23:52;15.00;99.90
9915;DHT22;4996;48.746;9.174;2023-04-29T07:26:19;15.10;99.90
9915;DHT22;4996;48.746;9.174;2023-04-29T07:28:47;15.10;99.90
9915;DHT22;4996;48.746;9.174;2023-04-29T07:31:13;15.00;99.90
9915;DHT22;4996;48.746;9.174;2023-04-29T07:33:39;14.90;99.90
9915;DHT22;4996;48.746;9.174;2023-04-29T07:36:05;14.90;99.90
9915;DHT22;4996;48.746;9.174;2023-04-29T07:38:32;15.00;99.90
9915;DHT22;4996;48.746;9.174;2023-04-29T07:40:57;14.90;99.90
9915;DHT22;4996;48.746;9.174;2023-04-29T07:43:23;14.90;99.90
9915;DHT22;4996;48.746;9.174;2023-04-29T07:45:48;15.00;99.90
9915;DHT22;4996;48.746;9.174;2023-04-29T07:48:14;15.10;99.90
9915;DHT22;4996;48.746;9.174;2023-04-29T07:50:40;15.30;99.90
9915;DHT22;4996;48.746;9.174;2023-04-29T07:53:05;15.30;99.90
9915;DHT22;4996;48.746;9.174;2023-04-29T07:55:31;15.50;99.90
9915;DHT22;4996;48.746;9.174;2023-04-29T07:57:57;15.60;99.90
9915;DHT22;4996;48.746;9.174;2023-04-29T08:00:23;15.60;99.90
9915;DHT22;4996;48.746;9.174;2023-04-29T08:02:52;15.60;99.90
9915;DHT22;4996;48.746;9.174;2023-04-29T08:05:18;15.60;99.90
9915;DHT22;4996;48.746;9.174;2023-04-29T08:07:46;15.70;99.90
9915;DHT22;4996;48.746;9.174;2023-04-29T08:10:11;15.80;99.90
9915;DHT22;4996;48.746;9.174;2023-04-29T08:12:37;15.80;99.90
9915;DHT22;4996;48.746;9.174;2023-04-29T08:15:03;15.80;99.90
9915;DHT22;4996;48.746;9.174;2023-04-29T08:17:28;15.90;99.90
9915;DHT22;4996;48.746;9.174;2023-04-29T08:19:54;16.00;99.90
9915;DHT22;4996;48.746;9.174;2023-04-29T08:22:19;16.00;99.90
9915;DHT22;4996;48.746;9.174;2023-04-29T08:24:45;16.00;99.90
9915;DHT22;4996;48.746;9.174;2023-04-29T08:27:10;16.00;99.90
9915;DHT22;4996;48.746;9.174;2023-04-29T08:29:36;16.20;99.90
9915;DHT22;4996;48.746;9.174;2023-04-29T08:32:02;16.20;99.90
9915;DHT22;4996;48.746;9.174;2023-04-29T08:34:27;16.20;99.90
9915;DHT22;4996;48.746;9.174;2023-04-29T08:36:53;16.10;99.90
9915;DHT22;4996;48.746;9.174;2023-04-29T08:39:18;16.20;99.90
9915;DHT22;4996;48.746;9.174;2023-04-29T08:41:44;16.40;99.90
9915;DHT22;4996;48.746;9.174;2023-04-29T08:44:14;16.40;99.90
9915;DHT22;4996;48.746;9.174;2023-04-29T08:46:42;16.50;99.90
9915;DHT22;4996;48.746;9.174;2023-04-29T08:49:09;16.40;99.90
9915;DHT22;4996;48.746;9.174;2023-04-29T08:51:34;16.40;99.90
9915;DHT22;4996;48.746;9.174;2023-04-29T08:54:00;16.30;99.90
9915;DHT22;4996;48.746;9.174;2023-04-29T08:56:25;16.20;99.90
9915;DHT22;4996;48.746;9.174;2023-04-29T08:58:53;16.10;99.90
9915;DHT22;4996;48.746;9.174;2023-04-29T09:01:21;15.80;99.90
9915;DHT22;4996;48.746;9.174;2023-04-29T09:03:55;15.80;99.90
9915;DHT22;4996;48.746;9.174;2023-04-29T09:06:26;15.80;99.90
9915;DHT22;4996;48.746;9.174;2023-04-29T09:08:51;15.90;99.90
9915;DHT22;4996;48.746;9.174;2023-04-29T09:11:18;15.90;99.90
9915;DHT22;4996;48.746;9.174;2023-04-29T09:13:43;15.90;99.90
9915;DHT22;4996;48.746;9.174;2023-04-29T09:16:12;15.50;99.90
9915;DHT22;4996;48.746;9.174;2023-04-29T09:18:45;15.60;99.90
9915;DHT22;4996;48.746;9.174;2023-04-29T09:21:18;15.60;99.90
9915;DHT22;4996;48.746;9.174;2023-04-29T09:23:46;15.30;99.90
9915;DHT22;4996;48.746;9.174;2023-04-29T09:26:12;15.00;99.90
9915;DHT22;4996;48.746;9.174;2023-04-29T09:28:37;14.80;99.90
9915;DHT22;4996;48.746;9.174;2023-04-29T09:31:06;14.80;99.90
9915;DHT22;4996;48.746;9.174;2023-04-29T09:33:55;15.00;99.90
9915;DHT22;4996;48.746;9.174;2023-04-29T09:36:48;15.10;99.90
9915;DHT22;4996;48.746;9.174;2023-04-29T09:39:18;15.40;99.90
9915;DHT22;4996;48.746;9.174;2023-04-29T09:47:05;16.10;99.90
9915;DHT22;4996;48.746;9.174;2023-04-29T09:49:33;16.30;99.90
9915;DHT22;4996;48.746;9.174;2023-04-29T09:54:33;16.40;99.90
9915;DHT22;4996;48.746;9.174;2023-04-29T09:57:01;16.30;99.90
9915;DHT22;4996;48.746;9.174;2023-04-29T09:59:27;16.40;99.90
9915;DHT22;4996;48.746;9.174;2023-04-29T10:01:57;16.40;99.90
9915;DHT22;4996;48.746;9.174;2023-04-29T10:04:24;16.50;99.90
9915;DHT22;4996;48.746;9.174;2023-04-29T10:06:54;16.40;99.90
9915;DHT22;4996;48.746;9.174;2023-04-29T10:09:21;16.20;99.90
9915;DHT22;4996;48.746;9.174;2023-04-29T10:11:48;16.50;99.90
9915;DHT22;4996;48.746;9.174;2023-04-29T10:14:19;16.70;99.90
9915;DHT22;4996;48.746;9.174;2023-04-29T10:16:48;16.90;99.90
9915;DHT22;4996;48.746;9.174;2023-04-29T10:19:38;17.30;99.90
9915;DHT22;4996;48.746;9.174;2023-04-29T10:22:08;17.20;99.90
9915;DHT22;4996;48.746;9.174;2023-04-29T10:24:36;17.50;99.90
9915;DHT22;4996;48.746;9.174;2023-04-29T10:27:04;17.50;99.90
9915;DHT22;4996;48.746;9.174;2023-04-29T10:29:33;17.90;99.90
9915;DHT22;4996;48.746;9.174;2023-04-29T10:32:00;18.20;99.90
9915;DHT22;4996;48.746;9.174;2023-04-29T10:34:26;17.80;99.90
9915;DHT22;4996;48.746;9.174;2023-04-29T10:36:52;17.60;99.90
9915;DHT22;4996;48.746;9.174;2023-04-29T10:39:26;17.10;99.90
9915;DHT22;4996;48.746;9.174;2023-04-29T10:41:55;16.90;99.90
9915;DHT22;4996;48.746;9.174;2023-04-29T10:44:21;17.00;99.90
9915;DHT22;4996;48.746;9.174;2023-04-29T10:46:48;16.90;99.90
9915;DHT22;4996;48.746;9.174;2023-04-29T10:49:14;17.50;99.90
9915;DHT22;4996;48.746;9.174;2023-04-29T10:51:41;17.40;99.90
9915;DHT22;4996;48.746;9.174;2023-04-29T10:54:13;17.70;99.90
9915;DHT22;4996;48.746;9.174;2023-04-29T10:56:46;17.50;99.90
9915;DHT22;4996;48.746;9.174;2023-04-29T10:59:13;17.30;99.90
9915;DHT22;4996;48.746;9.174;2023-04-29T11:02:06;17.30;99.90
9915;DHT22;4996;48.746;9.174;2023-04-29T11:04:32;17.60;99.90
9915;DHT22;4996;48.746;9.174;2023-04-29T11:07:00;17.70;99.90
9915;DHT22;4996;48.746;9.174;2023-04-29T11:09:30;18.10;99.90
9915;DHT22;4996;48.746;9.174;2023-04-29T11:12:01;17.80;99.90
9915;DHT22;4996;48.746;9.174;2023-04-29T11:14:41;17.90;99.90
9915;DHT22;4996;48.746;9.174;2023-04-29T11:17:13;18.50;99.90
9915;DHT22;4996;48.746;9.174;2023-04-29T11:19:51;19.00;99.90
9915;DHT22;4996;48.746;9.174;2023-04-29T11:25:00;18.10;99.90
9915;DHT22;4996;48.746;9.174;2023-04-29T11:27:32;18.00;99.90
9915;DHT22;4996;48.746;9.174;2023-04-29T11:29:58;18.10;99.90
9915;DHT22;4996;48.746;9.174;2023-04-29T11:32:29;18.10;99.90
9915;DHT22;4996;48.746;9.174;2023-04-29T11:35:06;18.20;99.90
9915;DHT22;4996;48.746;9.174;2023-04-29T11:37:32;18.30;99.90
9915;DHT22;4996;48.746;9.174;2023-04-29T11:40:00;18.40;99.90
9915;DHT22;4996;48.746;9.174;2023-04-29T11:42:26;18.40;99.90
9915;DHT22;4996;48.746;9.174;2023-04-29T11:44:56;18.80;99.90
9915;DHT22;4996;48.746;9.174;2023-04-29T11:47:29;19.60;99.90
9915;DHT22;4996;48.746;9.174;2023-04-29T11:50:05;20.00;99.90
9915;DHT22;4996;48.746;9.174;2023-04-29T11:52:32;20.40;99.90
9915;DHT22;4996;48.746;9.174;2023-04-29T11:54:59;21.00;99.90
9915;DHT22;4996;48.746;9.174;2023-04-29T11:57:25;21.20;99.90
9915;DHT22;4996;48.746;9.174;2023-04-29T11:59:51;21.20;99.90
9915;DHT22;4996;48.746;9.174;2023-04-29T12:02:21;21.60;99.90
9915;DHT22;4996;48.746;9.174;2023-04-29T12:04:46;21.00;99.90
9915;DHT22;4996;48.746;9.174;2023-04-29T12:07:16;21.20;99.90
9915;DHT22;4996;48.746;9.174;2023-04-29T12:09:45;20.40;99.90
9915;DHT22;4996;48.746;9.174;2023-04-29T12:12:12;20.20;99.90
9915;DHT22;4996;48.746;9.174;2023-04-29T12:14:39;20.20;99.90
9915;DHT22;4996;48.746;9.174;2023-04-29T12:17:05;19.70;99.90
9915;DHT22;4996;48.746;9.174;2023-04-29T12:19:32;19.50;99.90
9915;DHT22;4996;48.746;9.174;2023-04-29T12:22:02;19.50;99.90
9915;DHT22;4996;48.746;9.174;2023-04-29T12:24:27;19.40;99.90
9915;DHT22;4996;48.746;9.174;2023-04-29T12:26:54;19.10;99.90
9915;DHT22;4996;48.746;9.174;2023-04-29T12:29:23;19.50;99.90
9915;DHT22;4996;48.746;9.174;2023-04-29T12:31:48;19.40;99.90
9915;DHT22;4996;48.746;9.174;2023-04-29T12:34:15;19.10;99.90
9915;DHT22;4996;48.746;9.174;2023-04-29T12:36:41;18.90;99.90
9915;DHT22;4996;48.746;9.174;2023-04-29T12:39:09;19.10;99.90
9915;DHT22;4996;48.746;9.174;2023-04-29T12:41:41;19.40;99.90
9915;DHT22;4996;48.746;9.174;2023-04-29T12:44:07;19.70;99.90
9915;DHT22;4996;48.746;9.174;2023-04-29T12:46:36;19.80;99.90
9915;DHT22;4996;48.746;9.174;2023-04-29T12:49:03;20.20;99.90
9915;DHT22;4996;48.746;9.174;2023-04-29T12:51:33;20.00;99.90
9915;DHT22;4996;48.746;9.174;2023-04-29T12:54:03;20.60;99.90
9915;DHT22;4996;48.746;9.174;2023-04-29T12:56:32;20.70;99.90
9915;DHT22;4996;48.746;9.174;2023-04-29T12:59:07;20.40;99.90
9915;DHT22;4996;48.746;9.174;2023-04-29T13:01:37;20.10;99.90
9915;DHT22;4996;48.746;9.174;2023-04-29T13:04:02;19.90;99.90
9915;DHT22;4996;48.746;9.174;2023-04-29T13:06:30;19.90;99.90
9915;DHT22;4996;48.746;9.174;2023-04-29T13:08:56;20.40;99.90
9915;DHT22;4996;48.746;9.174;2023-04-29T13:11:21;21.20;99.90
9915;DHT22;4996;48.746;9.174;2023-04-29T13:13:47;21.70;99.90
9915;DHT22;4996;48.746;9.174;2023-04-29T13:16:12;21.80;99.90
9915;DHT22;4996;48.746;9.174;2023-04-29T13:18:38;22.20;99.90
9915;DHT22;4996;48.746;9.174;2023-04-29T13:21:03;21.80;99.90
9915;DHT22;4996;48.746;9.174;2023-04-29T13:23:29;22.00;99.90
9915;DHT22;4996;48.746;9.174;2023-04-29T13:25:54;21.40;99.90
9915;DHT22;4996;48.746;9.174;2023-04-29T13:28:20;21.40;99.90
9915;DHT22;4996;48.746;9.174;2023-04-29T13:30:47;21.10;99.90
9915;DHT22;4996;48.746;9.174;2023-04-29T13:33:12;20.30;99.90
9915;DHT22;4996;48.746;9.174;2023-04-29T13:35:38;20.00;99.90
9915;DHT22;4996;48.746;9.174;2023-04-29T13:38:05;19.20;99.90
9915;DHT22;4996;48.746;9.174;2023-04-29T13:40:31;18.80;99.90
9915;DHT22;4996;48.746;9.174;2023-04-29T13:42:57;18.00;99.90
9915;DHT22;4996;48.746;9.174;2023-04-29T13:45:22;18.00;99.90
9915;DHT22;4996;48.746;9.174;2023-04-29T13:47:48;17.60;99.90
9915;DHT22;4996;48.746;9.174;2023-04-29T13:50:13;17.60;99.90
9915;DHT22;4996;48.746;9.174;2023-04-29T13:52:39;17.80;99.90
9915;DHT22;4996;48.746;9.174;2023-04-29T13:55:05;18.00;99.90
9915;DHT22;4996;48.746;9.174;2023-04-29T13:57:30;17.90;99.90
9915;DHT22;4996;48.746;9.174;2023-04-29T13:59:56;17.90;99.90
9915;DHT22;4996;48.746;9.174;2023-04-29T14:02:21;17.90;99.90
9915;DHT22;4996;48.746;9.174;2023-04-29T14:04:47;17.60;99.90
9915;DHT22;4996;48.746;9.174;2023-04-29T14:07:12;17.50;99.90
9915;DHT22;4996;48.746;9.174;2023-04-29T14:09:38;16.90;99.90
9915;DHT22;4996;48.746;9.174;2023-04-29T14:12:05;16.80;99.90
9915;DHT22;4996;48.746;9.174;2023-04-29T14:14:30;16.70;99.90
9915;DHT22;4996;48.746;9.174;2023-04-29T14:16:56;16.40;99.90
9915;DHT22;4996;48.746;9.174;2023-04-29T14:19:22;16.60;99.90
9915;DHT22;4996;48.746;9.174;2023-04-29T14:21:47;16.30;99.90
9915;DHT22;4996;48.746;9.174;2023-04-29T14:24:13;16.30;99.90
9915;DHT22;4996;48.746;9.174;2023-04-29T14:26:38;16.70;99.90
9915;DHT22;4996;48.746;9.174;2023-04-29T14:29:04;16.70;99.90
9915;DHT22;4996;48.746;9.174;2023-04-29T14:31:32;16.70;99.90
9915;DHT22;4996;48.746;9.174;2023-04-29T14:34:00;16.50;99.90
9915;DHT22;4996;48.746;9.174;2023-04-29T14:36:25;16.40;99.90
9915;DHT22;4996;48.746;9.174;2023-04-29T14:38:52;16.30;99.90
9915;DHT22;4996;48.746;9.174;2023-04-29T14:41:18;16.50;99.90
9915;DHT22;4996;48.746;9.174;2023-04-29T14:43:45;16.40;99.90
9915;DHT22;4996;48.746;9.174;2023-04-29T14:46:11;16.20;99.90
9915;DHT22;4996;48.746;9.174;2023-04-29T14:48:36;16.30;99.90
9915;DHT22;4996;48.746;9.174;2023-04-29T14:51:02;16.20;99.90
9915;DHT22;4996;48.746;9.174;2023-04-29T14:53:28;16.20;99.90
9915;DHT22;4996;48.746;9.174;2023-04-29T14:55:53;16.40;99.90
9915;DHT22;4996;48.746;9.174;2023-04-29T14:58:19;16.20;99.90
9915;DHT22;4996;48.746;9.174;2023-04-29T15:00:45;16.10;99.90
9915;DHT22;4996;48.746;9.174;2023-04-29T15:03:11;15.90;99.90
9915;DHT22;4996;48.746;9.174;2023-04-29T15:05:36;16.00;99.90
9915;DHT22;4996;48.746;9.174;2023-04-29T15:08:02;16.30;99.90
9915;DHT22;4996;48.746;9.174;2023-04-29T15:10:28;16.10;99.90
9915;DHT22;4996;48.746;9.174;2023-04-29T15:12:54;16.00;99.90
9915;DHT22;4996;48.746;9.174;2023-04-29T15:15:21;15.80;99.90
9915;DHT22;4996;48.746;9.174;2023-04-29T15:17:47;15.90;99.90
9915;DHT22;4996;48.746;9.174;2023-04-29T15:20:12;15.70;99.90
9915;DHT22;4996;48.746;9.174;2023-04-29T15:22:38;15.60;99.90
9915;DHT22;4996;48.746;9.174;2023-04-29T15:25:05;15.50;99.90
9915;DHT22;4996;48.746;9.174;2023-04-29T15:27:32;15.70;99.90
9915;DHT22;4996;48.746;9.174;2023-04-29T15:29:57;15.60;99.90
9915;DHT22;4996;48.746;9.174;2023-04-29T15:32:23;15.50;99.90
9915;DHT22;4996;48.746;9.174;2023-04-29T15:34:56;15.50;99.90
9915;DHT22;4996;48.746;9.174;2023-04-29T15:37:22;15.60;99.90
9915;DHT22;4996;48.746;9.174;2023-04-29T15:39:47;15.60;99.90
9915;DHT22;4996;48.746;9.174;2023-04-29T15:42:13;15.60;99.90
9915;DHT22;4996;48.746;9.174;2023-04-29T15:44:38;15.60;99.90
9915;DHT22;4996;48.746;9.174;2023-04-29T15:47:04;15.50;99.90
9915;DHT22;4996;48.746;9.174;2023-04-29T15:49:29;15.70;99.90
9915;DHT22;4996;48.746;9.174;2023-04-29T15:51:55;15.60;99.90
9915;DHT22;4996;48.746;9.174;2023-04-29T15:54:20;15.40;99.90
9915;DHT22;4996;48.746;9.174;2023-04-29T15:56:47;15.20;99.90
9915;DHT22;4996;48.746;9.174;2023-04-29T15:59:13;15.30;99.90
9915;DHT22;4996;48.746;9.174;2023-04-29T16:01:40;15.40;99.90
9915;DHT22;4996;48.746;9.174;2023-04-29T16:04:06;15.30;99.90
9915;DHT22;4996;48.746;9.174;2023-04-29T16:06:31;15.30;99.90
9915;DHT22;4996;48.746;9.174;2023-04-29T16:08:57;15.30;99.90
9915;DHT22;4996;48.746;9.174;2023-04-29T16:11:22;15.10;99.90
9915;DHT22;4996;48.746;9.174;2023-04-29T16:13:48;15.00;99.90
9915;DHT22;4996;48.746;9.174;2023-04-29T16:16:13;15.10;99.90
9915;DHT22;4996;48.746;9.174;2023-04-29T16:18:39;15.00;99.90
9915;DHT22;4996;48.746;9.174;2023-04-29T16:21:04;14.80;99.90
9915;DHT22;4996;48.746;9.174;2023-04-29T16:23:30;15.20;99.90